sensor_id;sensor_type;location;lat;lon;timestamp;pressure;altitude;pressure_sealevel;temperature;humidity
62712;BME280;48772;55.586;37.730;2024-01-10T00:00:38;98150.53;;;-2.83;100.00
62712;BME280;48772;55.586;37.730;2024-01-10T00:03:04;98140.25;;;-2.86;100.00
62712;BME280;48772;55.586;37.730;2024-01-10T00:05:30;98141.78;;;-2.82;100.00
62712;BME280;48772;55.586;37.730;2024-01-10T00:07:55;98112.50;;;-2.87;100.00
62712;BME280;48772;55.586;37.730;2024-01-10T00:10:21;98143.00;;;-2.72;100.00
62712;BME280;48772;55.586;37.730;2024-01-10T00:12:47;98118.25;;;-2.81;100.00
62712;BME280;48772;55.586;37.730;2024-01-10T00:15:13;98114.56;;;-2.77;100.00
62712;BME280;48772;55.586;37.730;2024-01-10T00:17:40;98135.31;;;-2.58;100.00
62712;BME280;48772;55.586;37.730;2024-01-10T00:20:10;98115.22;;;-2.56;100.00
62712;BME280;48772;55.586;37.730;2024-01-10T00:22:35;98108.53;;;-2.62;100.00
62712;BME280;48772;55.586;37.730;2024-01-10T00:25:01;98068.38;;;-2.75;100.00
62712;BME280;48772;55.586;37.730;2024-01-10T00:27:27;98113.72;;;-2.45;100.00
62712;BME280;48772;55.586;37.730;2024-01-10T00:29:53;98115.16;;;-2.39;100.00
62712;BME280;48772;55.586;37.730;2024-01-10T00:32:21;98096.97;;;-2.41;100.00
62712;BME280;48772;55.586;37.730;2024-01-10T00:34:47;98067.50;;;-2.58;100.00
62712;BME280;48772;55.586;37.730;2024-01-10T00:37:12;98063.97;;;-2.57;100.00
62712;BME280;48772;55.586;37.730;2024-01-10T00:39:38;98094.06;;;-2.35;100.00
62712;BME280;48772;55.586;37.730;2024-01-10T00:42:05;98095.06;;;-2.37;100.00
62712;BME280;48772;55.586;37.730;2024-01-10T00:44:31;98095.56;;;-2.31;100.00
62712;BME280;48772;55.586;37.730;2024-01-10T00:46:57;98096.22;;;-2.27;100.00
62712;BME280;48772;55.586;37.730;2024-01-10T00:49:22;98097.00;;;-2.25;100.00
62712;BME280;48772;55.586;37.730;2024-01-10T00:51:48;98097.94;;;-2.26;100.00
62712;BME280;48772;55.586;37.730;2024-01-10T00:54:14;98070.88;;;-2.41;100.00
62712;BME280;48772;55.586;37.730;2024-01-10T00:56:40;98074.69;;;-2.31;100.00
62712;BME280;48772;55.586;37.730;2024-01-10T00:59:06;98102.50;;;-2.14;100.00
62712;BME280;48772;55.586;37.730;2024-01-10T01:01:32;98119.50;;;-2.07;100.00
62712;BME280;48772;55.586;37.730;2024-01-10T01:03:57;98112.53;;;-2.07;100.00
62712;BME280;48772;55.586;37.730;2024-01-10T01:06:23;98083.63;;;-2.19;100.00
62712;BME280;48772;55.586;37.730;2024-01-10T01:08:49;98093.31;;;-2.06;100.00
62712;BME280;48772;55.586;37.730;2024-01-10T01:11:15;98122.28;;;-1.95;100.00
62712;BME280;48772;55.586;37.730;2024-01-10T01:13:41;98122.97;;;-1.91;100.00
62712;BME280;48772;55.586;37.730;2024-01-10T01:16:06;98098.53;;;-2.06;100.00
62712;BME280;48772;55.586;37.730;2024-01-10T01:18:32;98114.47;;;-1.95;100.00
62712;BME280;48772;55.586;37.730;2024-01-10T01:20:58;98126.50;;;-1.92;100.00
62712;BME280;48772;55.586;37.730;2024-01-10T01:23:24;98154.13;;;-1.88;100.00
62712;BME280;48772;55.586;37.730;2024-01-10T01:25:50;98127.84;;;-1.85;100.00
62712;BME280;48772;55.586;37.730;2024-01-10T01:28:16;98151.69;;;-1.76;100.00
62712;BME280;48772;55.586;37.730;2024-01-10T01:30:42;98142.19;;;-1.77;100.00
62712;BME280;48772;55.586;37.730;2024-01-10T01:33:08;98140.75;;;-1.82;100.00
62712;BME280;48772;55.586;37.730;2024-01-10T01:35:34;98127.84;;;-1.85;100.00
62712;BME280;48772;55.586;37.730;2024-01-10T01:38:00;98131.03;;;-1.80;100.00
62712;BME280;48772;55.586;37.730;2024-01-10T01:40:26;98122.09;;;-1.76;100.00
62712;BME280;48772;55.586;37.730;2024-01-10T01:42:52;98139.13;;;-1.69;100.00
62712;BME280;48772;55.586;37.730;2024-01-10T01:45:19;98149.59;;;-1.69;100.00
62712;BME280;48772;55.586;37.730;2024-01-10T01:47:45;98150.34;;;-1.67;100.00
62712;BME280;48772;55.586;37.730;2024-01-10T01:50:11;98171.66;;;-1.59;100.00
62712;BME280;48772;55.586;37.730;2024-01-10T01:52:37;98137.19;;;-1.81;100.00
62712;BME280;48772;55.586;37.730;2024-01-10T01:55:05;98158.03;;;-1.80;100.00
62712;BME280;48772;55.586;37.730;2024-01-10T01:57:32;98174.81;;;-1.68;100.00
62712;BME280;48772;55.586;37.730;2024-01-10T01:59:59;98190.13;;;-1.62;100.00
62712;BME280;48772;55.586;37.730;2024-01-10T02:02:25;98209.94;;;-1.58;100.00
62712;BME280;48772;55.586;37.730;2024-01-10T02:04:52;98203.78;;;-1.57;100.00
62712;BME280;48772;55.586;37.730;2024-01-10T02:07:19;98203.03;;;-1.59;100.00
62712;BME280;48772;55.586;37.730;2024-01-10T02:09:44;98216.88;;;-1.57;100.00
62712;BME280;48772;55.586;37.730;2024-01-10T02:12:10;98229.94;;;-1.57;100.00
62712;BME280;48772;55.586;37.730;2024-01-10T02:14:36;98239.94;;;-1.65;100.00
62712;BME280;48772;55.586;37.730;2024-01-10T02:17:03;98253.91;;;-1.66;100.00
62712;BME280;48772;55.586;37.730;2024-01-10T02:19:29;98254.44;;;-1.75;100.00
62712;BME280;48772;55.586;37.730;2024-01-10T02:21:56;98257.06;;;-1.92;100.00
62712;BME280;48772;55.586;37.730;2024-01-10T02:24:22;98230.41;;;-2.14;100.00
62712;BME280;48772;55.586;37.730;2024-01-10T02:26:48;98281.22;;;-2.04;100.00
62712;BME280;48772;55.586;37.730;2024-01-10T02:29:15;98272.09;;;-2.13;100.00
62712;BME280;48772;55.586;37.730;2024-01-10T02:31:41;98294.75;;;-2.13;100.00
62712;BME280;48772;55.586;37.730;2024-01-10T02:34:07;98292.47;;;-2.19;100.00
62712;BME280;48772;55.586;37.730;2024-01-10T02:36:33;98312.72;;;-2.24;100.00
62712;BME280;48772;55.586;37.730;2024-01-10T02:38:59;98311.09;;;-2.44;100.00
62712;BME280;48772;55.586;37.730;2024-01-10T02:41:25;98316.16;;;-2.41;100.00
62712;BME280;48772;55.586;37.730;2024-01-10T02:43:53;98338.59;;;-2.37;100.00
62712;BME280;48772;55.586;37.730;2024-01-10T02:46:19;98337.13;;;-2.42;100.00
62712;BME280;48772;55.586;37.730;2024-01-10T02:48:48;98318.94;;;-2.61;100.00
62712;BME280;48772;55.586;37.730;2024-01-10T02:51:13;98363.47;;;-2.47;100.00
62712;BME280;48772;55.586;37.730;2024-01-10T02:53:42;98341.94;;;-2.69;100.00
62712;BME280;48772;55.586;37.730;2024-01-10T02:56:26;98324.63;;;-2.88;100.00
62712;BME280;48772;55.586;37.730;2024-01-10T02:58:52;98383.28;;;-2.61;100.00
62712;BME280;48772;55.586;37.730;2024-01-10T03:01:18;98335.63;;;-3.00;100.00
62712;BME280;48772;55.586;37.730;2024-01-10T03:03:44;98379.47;;;-2.90;100.00
62712;BME280;48772;55.586;37.730;2024-01-10T03:06:10;98389.25;;;-2.95;100.00
62712;BME280;48772;55.586;37.730;2024-01-10T03:08:35;98390.03;;;-2.93;100.00
62712;BME280;48772;55.586;37.730;2024-01-10T03:11:01;98413.28;;;-2.88;100.00
62712;BME280;48772;55.586;37.730;2024-01-10T03:13:27;98375.38;;;-3.14;100.00
62712;BME280;48772;55.586;37.730;2024-01-10T03:15:53;98398.38;;;-3.03;100.00
62712;BME280;48772;55.586;37.730;2024-01-10T03:18:19;98426.59;;;-2.94;100.00
62712;BME280;48772;55.586;37.730;2024-01-10T03:20:45;98417.56;;;-3.06;100.00
62712;BME280;48772;55.586;37.730;2024-01-10T03:23:10;98435.41;;;-2.97;100.00
62712;BME280;48772;55.586;37.730;2024-01-10T03:25:36;98429.22;;;-3.13;100.00
62712;BME280;48772;55.586;37.730;2024-01-10T03:28:02;98463.81;;;-3.09;100.00
62712;BME280;48772;55.586;37.730;2024-01-10T03:30:28;98465.00;;;-3.16;100.00
62712;BME280;48772;55.586;37.730;2024-01-10T03:32:54;98472.97;;;-3.39;100.00
62712;BME280;48772;55.586;37.730;2024-01-10T03:35:20;98474.94;;;-3.85;100.00
62712;BME280;48772;55.586;37.730;2024-01-10T03:37:46;98501.72;;;-4.03;100.00
62712;BME280;48772;55.586;37.730;2024-01-10T03:40:15;98513.97;;;-4.26;100.00
62712;BME280;48772;55.586;37.730;2024-01-10T03:42:41;98471.72;;;-4.76;100.00
62712;BME280;48772;55.586;37.730;2024-01-10T03:45:07;98520.19;;;-4.75;100.00
62712;BME280;48772;55.586;37.730;2024-01-10T03:47:33;98514.31;;;-5.03;100.00
62712;BME280;48772;55.586;37.730;2024-01-10T03:49:59;98555.63;;;-4.95;100.00
62712;BME280;48772;55.586;37.730;2024-01-10T03:52:24;98566.06;;;-4.97;100.00
62712;BME280;48772;55.586;37.730;2024-01-10T03:54:50;98569.78;;;-5.04;100.00
62712;BME280;48772;55.586;37.730;2024-01-10T03:57:16;98572.94;;;-5.19;100.00
62712;BME280;48772;55.586;37.730;2024-01-10T03:59:42;98561.47;;;-5.38;100.00
62712;BME280;48772;55.586;37.730;2024-01-10T04:02:08;98582.50;;;-5.45;100.00
62712;BME280;48772;55.586;37.730;2024-01-10T04:04:37;98612.81;;;-5.46;100.00
62712;BME280;48772;55.586;37.730;2024-01-10T04:07:04;98620.22;;;-5.60;100.00
62712;BME280;48772;55.586;37.730;2024-01-10T04:09:30;98653.66;;;-5.51;100.00
62712;BME280;48772;55.586;37.730;2024-01-10T04:11:56;98667.78;;;-5.59;100.00
62712;BME280;48772;55.586;37.730;2024-01-10T04:14:23;98677.81;;;-5.75;100.00
62712;BME280;48772;55.586;37.730;2024-01-10T04:16:48;98662.91;;;-5.94;100.00
62712;BME280;48772;55.586;37.730;2024-01-10T04:19:14;98659.34;;;-6.19;100.00
62712;BME280;48772;55.586;37.730;2024-01-10T04:21:40;98708.03;;;-6.00;100.00
62712;BME280;48772;55.586;37.730;2024-01-10T04:24:06;98687.19;;;-6.26;100.00
62712;BME280;48772;55.586;37.730;2024-01-10T04:26:32;98700.84;;;-6.19;100.00
62712;BME280;48772;55.586;37.730;2024-01-10T04:28:58;98722.38;;;-6.17;100.00
62712;BME280;48772;55.586;37.730;2024-01-10T04:31:24;98709.19;;;-6.39;100.00
62712;BME280;48772;55.586;37.730;2024-01-10T04:33:50;98745.25;;;-6.30;100.00
62712;BME280;48772;55.586;37.730;2024-01-10T04:36:16;98746.69;;;-6.52;100.00
62712;BME280;48772;55.586;37.730;2024-01-10T04:38:41;98766.56;;;-6.51;100.00
62712;BME280;48772;55.586;37.730;2024-01-10T04:41:07;98783.31;;;-6.64;100.00
62712;BME280;48772;55.586;37.730;2024-01-10T04:43:33;98787.13;;;-6.77;100.00
62712;BME280;48772;55.586;37.730;2024-01-10T04:45:59;98760.13;;;-7.02;100.00
62712;BME280;48772;55.586;37.730;2024-01-10T04:48:25;98771.50;;;-7.09;100.00
62712;BME280;48772;55.586;37.730;2024-01-10T04:50:51;98793.78;;;-7.02;100.00
62712;BME280;48772;55.586;37.730;2024-01-10T04:53:18;98820.59;;;-7.03;100.00
62712;BME280;48772;55.586;37.730;2024-01-10T04:55:44;98823.59;;;-7.21;100.00
62712;BME280;48772;55.586;37.730;2024-01-10T04:58:10;98796.78;;;-7.57;100.00
62712;BME280;48772;55.586;37.730;2024-01-10T05:00:36;98836.19;;;-7.44;100.00
62712;BME280;48772;55.586;37.730;2024-01-10T05:03:02;98858.69;;;-7.46;100.00
62712;BME280;48772;55.586;37.730;2024-01-10T05:05:28;98852.13;;;-7.62;100.00
62712;BME280;48772;55.586;37.730;2024-01-10T05:07:54;98872.69;;;-7.56;100.00
62712;BME280;48772;55.586;37.730;2024-01-10T05:10:20;98886.53;;;-7.57;100.00
62712;BME280;48772;55.586;37.730;2024-01-10T05:12:46;98881.47;;;-7.63;100.00
62712;BME280;48772;55.586;37.730;2024-01-10T05:15:12;98888.28;;;-7.59;100.00
62712;BME280;48772;55.586;37.730;2024-01-10T05:17:38;98881.41;;;-7.60;100.00
62712;BME280;48772;55.586;37.730;2024-01-10T05:20:05;98917.22;;;-7.39;100.00
62712;BME280;48772;55.586;37.730;2024-01-10T05:22:31;98931.78;;;-7.35;100.00
62712;BME280;48772;55.586;37.730;2024-01-10T05:24:57;98934.31;;;-7.32;100.00
62712;BME280;48772;55.586;37.730;2024-01-10T05:27:23;98931.09;;;-7.43;100.00
62712;BME280;48772;55.586;37.730;2024-01-10T05:29:49;98931.00;;;-7.40;100.00
62712;BME280;48772;55.586;37.730;2024-01-10T05:32:15;98955.25;;;-7.44;100.00
62712;BME280;48772;55.586;37.730;2024-01-10T05:34:40;98957.16;;;-7.52;100.00
62712;BME280;48772;55.586;37.730;2024-01-10T05:37:06;98967.34;;;-7.43;100.00
62712;BME280;48772;55.586;37.730;2024-01-10T05:39:32;98940.25;;;-7.68;100.00
62712;BME280;48772;55.586;37.730;2024-01-10T05:41:58;98934.50;;;-7.84;100.00
62712;BME280;48772;55.586;37.730;2024-01-10T05:44:24;98970.44;;;-7.70;100.00
62712;BME280;48772;55.586;37.730;2024-01-10T05:46:50;98997.88;;;-7.60;100.00
62712;BME280;48772;55.586;37.730;2024-01-10T05:49:17;98994.53;;;-7.65;100.00
62712;BME280;48772;55.586;37.730;2024-01-10T05:51:43;99000.81;;;-7.80;100.00
62712;BME280;48772;55.586;37.730;2024-01-10T05:54:09;99019.00;;;-7.86;100.00
62712;BME280;48772;55.586;37.730;2024-01-10T05:56:35;99011.41;;;-7.93;100.00
62712;BME280;48772;55.586;37.730;2024-01-10T05:59:01;99024.34;;;-7.93;100.00
62712;BME280;48772;55.586;37.730;2024-01-10T06:01:27;99023.50;;;-7.95;100.00
62712;BME280;48772;55.586;37.730;2024-01-10T06:03:54;99033.75;;;-7.89;100.00
62712;BME280;48772;55.586;37.730;2024-01-10T06:06:20;99033.09;;;-8.02;100.00
62712;BME280;48772;55.586;37.730;2024-01-10T06:08:46;99032.50;;;-8.17;100.00
62712;BME280;48772;55.586;37.730;2024-01-10T06:11:11;99076.13;;;-7.96;100.00
62712;BME280;48772;55.586;37.730;2024-01-10T06:13:38;99069.28;;;-8.00;100.00
62712;BME280;48772;55.586;37.730;2024-01-10T06:16:04;99078.00;;;-8.06;100.00
62712;BME280;48772;55.586;37.730;2024-01-10T06:18:30;99098.44;;;-7.91;100.00
62712;BME280;48772;55.586;37.730;2024-01-10T06:20:56;99072.06;;;-8.12;100.00
62712;BME280;48772;55.586;37.730;2024-01-10T06:23:22;99107.16;;;-7.96;100.00
62712;BME280;48772;55.586;37.730;2024-01-10T06:25:47;99108.88;;;-7.97;100.00
62712;BME280;48772;55.586;37.730;2024-01-10T06:28:14;99081.59;;;-8.16;100.00
62712;BME280;48772;55.586;37.730;2024-01-10T06:30:42;99144.75;;;-7.74;100.00
62712;BME280;48772;55.586;37.730;2024-01-10T06:33:09;99122.34;;;-7.75;100.00
62712;BME280;48772;55.586;37.730;2024-01-10T06:35:35;99142.06;;;-7.68;100.00
62712;BME280;48772;55.586;37.730;2024-01-10T06:38:02;99104.53;;;-7.93;100.00
62712;BME280;48772;55.586;37.730;2024-01-10T06:40:29;99158.56;;;-7.75;100.00
62712;BME280;48772;55.586;37.730;2024-01-10T06:42:56;99161.13;;;-7.74;100.00
62712;BME280;48772;55.586;37.730;2024-01-10T06:45:26;99161.22;;;-7.81;100.00
62712;BME280;48772;55.586;37.730;2024-01-10T06:47:52;99182.78;;;-7.81;100.00
62712;BME280;48772;55.586;37.730;2024-01-10T06:50:18;99140.25;;;-8.19;100.00
62712;BME280;48772;55.586;37.730;2024-01-10T06:52:46;99167.66;;;-8.08;100.00
62712;BME280;48772;55.586;37.730;2024-01-10T06:55:12;99201.19;;;-8.00;100.00
62712;BME280;48772;55.586;37.730;2024-01-10T06:57:42;99178.91;;;-8.12;100.00
62712;BME280;48772;55.586;37.730;2024-01-10T07:00:08;99193.50;;;-8.08;100.00
62712;BME280;48772;55.586;37.730;2024-01-10T07:02:37;99173.88;;;-8.19;100.00
62712;BME280;48772;55.586;37.730;2024-01-10T07:05:08;99212.47;;;-8.06;100.00
62712;BME280;48772;55.586;37.730;2024-01-10T07:07:34;99210.03;;;-8.16;100.00
62712;BME280;48772;55.586;37.730;2024-01-10T07:10:02;99181.69;;;-8.22;100.00
62712;BME280;48772;55.586;37.730;2024-01-10T07:12:31;99228.66;;;-7.93;100.00
62712;BME280;48772;55.586;37.730;2024-01-10T07:14:57;99214.16;;;-8.03;100.00
62712;BME280;48772;55.586;37.730;2024-01-10T07:17:23;99231.25;;;-7.93;100.00
62712;BME280;48772;55.586;37.730;2024-01-10T07:19:49;99248.44;;;-7.88;100.00
62712;BME280;48772;55.586;37.730;2024-01-10T07:22:16;99215.81;;;-7.99;100.00
62712;BME280;48772;55.586;37.730;2024-01-10T07:24:43;99256.19;;;-7.88;100.00
62712;BME280;48772;55.586;37.730;2024-01-10T07:27:09;99244.19;;;-7.92;100.00
62712;BME280;48772;55.586;37.730;2024-01-10T07:29:35;99212.41;;;-8.00;100.00
62712;BME280;48772;55.586;37.730;2024-01-10T07:32:01;99269.63;;;-7.63;100.00
62712;BME280;48772;55.586;37.730;2024-01-10T07:34:27;99201.94;;;-7.94;100.00
62712;BME280;48772;55.586;37.730;2024-01-10T07:36:53;99256.56;;;-7.53;100.00
62712;BME280;48772;55.586;37.730;2024-01-10T07:39:19;99236.75;;;-7.57;100.00
62712;BME280;48772;55.586;37.730;2024-01-10T07:41:45;99266.50;;;-7.27;100.00
62712;BME280;48772;55.586;37.730;2024-01-10T07:44:11;99280.19;;;-7.21;100.00
62712;BME280;48772;55.586;37.730;2024-01-10T07:46:38;99270.91;;;-7.32;100.00
62712;BME280;48772;55.586;37.730;2024-01-10T07:49:05;99293.09;;;-7.16;100.00
62712;BME280;48772;55.586;37.730;2024-01-10T07:51:31;99276.56;;;-7.09;100.00
62712;BME280;48772;55.586;37.730;2024-01-10T07:53:58;99297.81;;;-6.89;100.00
62712;BME280;48772;55.586;37.730;2024-01-10T07:56:51;99292.25;;;-6.66;100.00
62712;BME280;48772;55.586;37.730;2024-01-10T07:59:19;99303.25;;;-6.54;100.00
62712;BME280;48772;55.586;37.730;2024-01-10T08:01:54;99298.06;;;-6.54;100.00
62712;BME280;48772;55.586;37.730;2024-01-10T08:04:25;99302.88;;;-6.33;100.00
62712;BME280;48772;55.586;37.730;2024-01-10T08:06:51;99292.19;;;-6.18;100.00
62712;BME280;48772;55.586;37.730;2024-01-10T08:09:17;99293.41;;;-5.55;100.00
62712;BME280;48772;55.586;37.730;2024-01-10T08:11:45;99302.69;;;-5.07;100.00
62712;BME280;48772;55.586;37.730;2024-01-10T08:14:11;99281.69;;;-4.98;100.00
62712;BME280;48772;55.586;37.730;2024-01-10T08:16:38;99270.38;;;-4.30;100.00
62712;BME280;48772;55.586;37.730;2024-01-10T08:19:04;99262.44;;;-3.95;100.00
62712;BME280;48772;55.586;37.730;2024-01-10T08:21:30;99278.66;;;-3.56;100.00
62712;BME280;48772;55.586;37.730;2024-01-10T08:23:56;99269.88;;;-3.54;100.00
62712;BME280;48772;55.586;37.730;2024-01-10T08:26:23;99296.47;;;-3.42;100.00
62712;BME280;48772;55.586;37.730;2024-01-10T08:28:49;99289.47;;;-3.40;100.00
62712;BME280;48772;55.586;37.730;2024-01-10T08:31:18;99290.19;;;-2.31;100.00
62712;BME280;48772;55.586;37.730;2024-01-10T08:33:44;99297.75;;;-1.52;100.00
62712;BME280;48772;55.586;37.730;2024-01-10T08:36:11;99305.69;;;-0.67;100.00
62712;BME280;48772;55.586;37.730;2024-01-10T08:38:38;99308.88;;;-0.19;97.29
62712;BME280;48772;55.586;37.730;2024-01-10T08:41:04;99292.56;;;-0.26;95.38
62712;BME280;48772;55.586;37.730;2024-01-10T08:43:30;99301.16;;;-0.42;92.07
62712;BME280;48772;55.586;37.730;2024-01-10T08:45:56;99304.53;;;-1.03;91.91
62712;BME280;48772;55.586;37.730;2024-01-10T08:48:26;99240.41;;;-0.92;86.34
62712;BME280;48772;55.586;37.730;2024-01-10T08:50:52;99301.09;;;-0.41;82.73
62712;BME280;48772;55.586;37.730;2024-01-10T08:53:22;99282.50;;;-0.15;78.76
62712;BME280;48772;55.586;37.730;2024-01-10T08:55:48;99272.84;;;0.06;74.52
62712;BME280;48772;55.586;37.730;2024-01-10T08:58:14;99310.47;;;0.62;71.91
62712;BME280;48772;55.586;37.730;2024-01-10T09:00:40;99291.25;;;0.99;69.63
62712;BME280;48772;55.586;37.730;2024-01-10T09:03:06;99291.38;;;1.31;68.11
62712;BME280;48772;55.586;37.730;2024-01-10T09:05:33;99278.75;;;1.39;64.51
62712;BME280;48772;55.586;37.730;2024-01-10T09:07:59;99272.47;;;0.89;61.54
62712;BME280;48772;55.586;37.730;2024-01-10T09:10:26;99295.78;;;-0.19;64.55
62712;BME280;48772;55.586;37.730;2024-01-10T09:12:54;99317.25;;;-0.51;67.71
62712;BME280;48772;55.586;37.730;2024-01-10T09:15:20;99284.91;;;-0.10;67.90
62712;BME280;48772;55.586;37.730;2024-01-10T09:17:46;99327.34;;;1.12;65.15
62712;BME280;48772;55.586;37.730;2024-01-10T09:20:12;99314.41;;;1.79;61.88
62712;BME280;48772;55.586;37.730;2024-01-10T09:22:39;99330.03;;;1.82;58.48
62712;BME280;48772;55.586;37.730;2024-01-10T09:25:05;99286.19;;;1.65;57.47
62712;BME280;48772;55.586;37.730;2024-01-10T09:27:32;99339.44;;;2.52;56.14
62712;BME280;48772;55.586;37.730;2024-01-10T09:30:00;99304.88;;;2.75;54.36
62712;BME280;48772;55.586;37.730;2024-01-10T09:32:32;99325.50;;;3.29;52.47
62712;BME280;48772;55.586;37.730;2024-01-10T09:34:58;99311.50;;;3.74;51.20
62712;BME280;48772;55.586;37.730;2024-01-10T09:37:24;99296.53;;;3.75;49.57
62712;BME280;48772;55.586;37.730;2024-01-10T09:39:50;99339.00;;;4.00;48.34
62712;BME280;48772;55.586;37.730;2024-01-10T09:42:16;99319.84;;;4.26;47.95
62712;BME280;48772;55.586;37.730;2024-01-10T09:44:42;99334.47;;;4.02;46.17
62712;BME280;48772;55.586;37.730;2024-01-10T09:47:09;99291.50;;;3.86;46.12
62712;BME280;48772;55.586;37.730;2024-01-10T09:49:35;99334.47;;;4.45;46.17
62712;BME280;48772;55.586;37.730;2024-01-10T09:52:03;99329.84;;;4.49;45.18
62712;BME280;48772;55.586;37.730;2024-01-10T09:54:31;99338.94;;;4.73;45.76
62712;BME280;48772;55.586;37.730;2024-01-10T09:56:57;99308.44;;;4.39;44.71
62712;BME280;48772;55.586;37.730;2024-01-10T09:59:24;99314.69;;;4.38;45.24
62712;BME280;48772;55.586;37.730;2024-01-10T10:01:51;99314.47;;;4.55;44.92
62712;BME280;48772;55.586;37.730;2024-01-10T10:04:19;99310.72;;;4.31;44.70
62712;BME280;48772;55.586;37.730;2024-01-10T10:06:45;99326.72;;;3.85;44.94
62712;BME280;48772;55.586;37.730;2024-01-10T10:09:12;99323.88;;;3.88;44.96
62712;BME280;48772;55.586;37.730;2024-01-10T10:11:38;99346.84;;;2.94;46.33
62712;BME280;48772;55.586;37.730;2024-01-10T10:14:14;99343.22;;;1.97;48.48
62712;BME280;48772;55.586;37.730;2024-01-10T10:16:41;99308.28;;;1.26;50.80
62712;BME280;48772;55.586;37.730;2024-01-10T10:19:07;99337.88;;;0.94;52.68
62712;BME280;48772;55.586;37.730;2024-01-10T10:21:35;99330.28;;;0.31;54.70
62712;BME280;48772;55.586;37.730;2024-01-10T10:24:01;99353.34;;;-0.18;56.92
62712;BME280;48772;55.586;37.730;2024-01-10T10:26:32;99346.00;;;-0.71;60.08
62712;BME280;48772;55.586;37.730;2024-01-10T10:28:59;99320.44;;;-1.08;64.18
62712;BME280;48772;55.586;37.730;2024-01-10T10:31:25;99361.91;;;-1.20;66.71
62712;BME280;48772;55.586;37.730;2024-01-10T10:33:52;99362.72;;;-0.75;68.22
62712;BME280;48772;55.586;37.730;2024-01-10T10:36:19;99349.84;;;-1.24;67.69
62712;BME280;48772;55.586;37.730;2024-01-10T10:38:49;99340.50;;;-1.08;68.24
62712;BME280;48772;55.586;37.730;2024-01-10T10:41:15;99304.44;;;-0.17;65.42
62712;BME280;48772;55.586;37.730;2024-01-10T10:43:42;99357.78;;;0.22;62.99
62712;BME280;48772;55.586;37.730;2024-01-10T10:46:09;99338.03;;;-0.27;64.41
62712;BME280;48772;55.586;37.730;2024-01-10T10:48:38;99334.19;;;-0.60;66.12
62712;BME280;48772;55.586;37.730;2024-01-10T10:51:05;99326.38;;;-1.04;67.99
62712;BME280;48772;55.586;37.730;2024-01-10T10:53:36;99338.69;;;-1.29;70.65
62712;BME280;48772;55.586;37.730;2024-01-10T10:56:07;99337.81;;;-0.42;70.40
62712;BME280;48772;55.586;37.730;2024-01-10T10:58:39;99353.72;;;0.72;65.66
62712;BME280;48772;55.586;37.730;2024-01-10T11:01:08;99322.63;;;1.37;61.15
62712;BME280;48772;55.586;37.730;2024-01-10T11:03:40;99304.91;;;1.76;57.51
62712;BME280;48772;55.586;37.730;2024-01-10T11:06:08;99311.47;;;1.68;55.47
62712;BME280;48772;55.586;37.730;2024-01-10T11:08:36;99346.56;;;1.67;55.71
62712;BME280;48772;55.586;37.730;2024-01-10T11:11:06;99348.88;;;2.24;54.31
62712;BME280;48772;55.586;37.730;2024-01-10T11:24:32;99333.09;;;3.35;49.24
62712;BME280;48772;55.586;37.730;2024-01-10T11:27:13;99327.38;;;3.12;48.98
62712;BME280;48772;55.586;37.730;2024-01-10T11:29:40;99340.91;;;3.37;49.65
62712;BME280;48772;55.586;37.730;2024-01-10T11:32:15;99317.84;;;2.63;48.98
62712;BME280;48772;55.586;37.730;2024-01-10T11:35:15;99346.59;;;2.50;50.53
62712;BME280;48772;55.586;37.730;2024-01-10T11:37:45;99307.38;;;2.61;51.05
62712;BME280;48772;55.586;37.730;2024-01-10T11:40:13;99297.53;;;2.49;50.12
62712;BME280;48772;55.586;37.730;2024-01-10T11:42:43;99302.91;;;2.79;50.08
62712;BME280;48772;55.586;37.730;2024-01-10T11:45:35;99351.25;;;3.09;49.16
62712;BME280;48772;55.586;37.730;2024-01-10T11:48:02;99350.16;;;2.97;48.60
62712;BME280;48772;55.586;37.730;2024-01-10T11:50:29;99312.16;;;2.70;48.80
62712;BME280;48772;55.586;37.730;2024-01-10T11:52:57;99316.94;;;2.14;49.41
62712;BME280;48772;55.586;37.730;2024-01-10T11:55:46;99349.28;;;0.93;51.71
62712;BME280;48772;55.586;37.730;2024-01-10T11:58:12;99345.63;;;-0.21;56.67
62712;BME280;48772;55.586;37.730;2024-01-10T12:00:39;99347.91;;;-0.98;60.72
62712;BME280;48772;55.586;37.730;2024-01-10T12:03:11;99371.31;;;-1.39;64.04
62712;BME280;48772;55.586;37.730;2024-01-10T12:05:38;99349.25;;;-2.03;68.60
62712;BME280;48772;55.586;37.730;2024-01-10T12:08:10;99350.97;;;-2.52;73.22
62712;BME280;48772;55.586;37.730;2024-01-10T12:10:46;99332.38;;;-2.69;77.64
62712;BME280;48772;55.586;37.730;2024-01-10T12:13:12;99349.72;;;-2.94;79.89
62712;BME280;48772;55.586;37.730;2024-01-10T12:15:38;99354.72;;;-2.87;83.57
62712;BME280;48772;55.586;37.730;2024-01-10T12:18:05;99356.97;;;-2.76;81.88
62712;BME280;48772;55.586;37.730;2024-01-10T12:20:31;99362.19;;;-2.76;83.37
62712;BME280;48772;55.586;37.730;2024-01-10T12:22:58;99357.00;;;-2.78;84.84
62712;BME280;48772;55.586;37.730;2024-01-10T12:25:24;99357.63;;;-2.97;85.96
62712;BME280;48772;55.586;37.730;2024-01-10T12:27:50;99367.41;;;-3.04;86.92
62712;BME280;48772;55.586;37.730;2024-01-10T12:30:16;99380.38;;;-3.30;89.56
62712;BME280;48772;55.586;37.730;2024-01-10T12:32:43;99323.88;;;-3.88;92.04
62712;BME280;48772;55.586;37.730;2024-01-10T12:35:09;99373.25;;;-3.85;94.47
62712;BME280;48772;55.586;37.730;2024-01-10T12:37:36;99380.91;;;-4.12;98.61
62712;BME280;48772;55.586;37.730;2024-01-10T12:40:02;99327.78;;;-4.69;100.00
62712;BME280;48772;55.586;37.730;2024-01-10T12:42:31;99376.63;;;-4.82;100.00
62712;BME280;48772;55.586;37.730;2024-01-10T12:44:57;99389.38;;;-4.73;100.00
62712;BME280;48772;55.586;37.730;2024-01-10T12:47:24;99362.34;;;-5.01;100.00
62712;BME280;48772;55.586;37.730;2024-01-10T12:49:51;99376.66;;;-4.83;100.00
62712;BME280;48772;55.586;37.730;2024-01-10T12:52:17;99340.28;;;-4.85;100.00
62712;BME280;48772;55.586;37.730;2024-01-10T12:54:45;99353.78;;;-4.69;100.00